Time;durP1;ratioP1;P1;durP2;ratioP2;P2;SDS_P1;SDS_P2;PMS_P1;PMS_P2;Temp;Humidity;BMP_temperature;BMP_pressure;BME280_temperature;BME280_humidity;BME280_pressure;Samples;Min_cycle;Max_cycle;Signal;HPM_P1;HPM_P2
2021/06/13 00:01:37;;;;;;;7.33;4.67;;;17.90;82.10;;;;;;5045464;28;20463;-63
2021/06/13 00:04:04;;;;;;;7.57;4.50;;;17.90;81.40;;;;;;5041775;28;20791;-63
2021/06/13 00:06:31;;;;;;;6.83;3.90;;;17.90;81.10;;;;;;5037058;28;20574;-63
2021/06/13 00:08:57;;;;;;;5.30;4.10;;;17.90;81.10;;;;;;5046361;28;20476;-64
2021/06/13 00:11:25;;;;;;;9.03;4.70;;;17.80;81.10;;;;;;5052808;28;20857;-63
2021/06/13 00:13:52;;;;;;;8.23;5.60;;;17.80;80.80;;;;;;5047892;28;20463;-63
2021/06/13 00:16:19;;;;;;;5.70;3.87;;;17.80;80.40;;;;;;5048108;28;20606;-63
2021/06/13 00:18:46;;;;;;;5.40;4.17;;;17.80;80.10;;;;;;5053564;28;20559;-63
2021/06/13 00:21:13;;;;;;;7.10;3.60;;;17.80;79.90;;;;;;5053673;28;20535;-63
2021/06/13 00:23:40;;;;;;;8.73;5.17;;;17.80;79.60;;;;;;5053657;28;20482;-63
2021/06/13 00:26:06;;;;;;;7.77;4.23;;;17.70;79.30;;;;;;5047953;28;20482;-62
2021/06/13 00:28:34;;;;;;;7.07;5.10;;;17.80;78.90;;;;;;5053250;28;20467;-63
2021/06/13 00:31:01;;;;;;;9.00;4.43;;;17.70;79.00;;;;;;5056320;28;20473;-63
2021/06/13 00:33:27;;;;;;;10.63;5.13;;;17.70;78.20;;;;;;5050563;28;20506;-63
2021/06/13 00:35:53;;;;;;;5.43;4.93;;;17.70;77.80;;;;;;5053201;28;21288;-63
2021/06/13 00:38:20;;;;;;;6.90;4.80;;;17.60;77.70;;;;;;5053078;28;21006;-64
2021/06/13 00:40:46;;;;;;;7.87;4.90;;;17.60;77.10;;;;;;5045846;28;20482;-63
2021/06/13 00:43:13;;;;;;;8.43;5.30;;;17.60;77.00;;;;;;5047723;28;20477;-63
2021/06/13 00:45:40;;;;;;;7.07;4.87;;;17.60;76.70;;;;;;5053863;28;20471;-63
2021/06/13 00:48:07;;;;;;;8.93;3.80;;;17.50;76.10;;;;;;5045650;28;20451;-63
2021/06/13 00:50:37;;;;;;;11.20;4.70;;;17.50;76.00;;;;;;5048369;28;20479;-63
2021/06/13 00:53:06;;;;;;;11.47;4.63;;;17.50;75.20;;;;;;5052875;28;20478;-63
2021/06/13 00:55:33;;;;;;;8.00;4.40;;;17.50;75.50;;;;;;5053065;28;20473;-63
2021/06/13 00:58:00;;;;;;;9.17;6.23;;;17.40;74.50;;;;;;5050383;28;20472;-63
2021/06/13 01:00:28;;;;;;;10.90;6.00;;;17.40;74.70;;;;;;5052733;28;20472;-63
2021/06/13 01:02:56;;;;;;;7.67;4.87;;;17.40;74.70;;;;;;5052374;28;20471;-62
2021/06/13 01:05:22;;;;;;;10.07;7.00;;;17.40;74.70;;;;;;5052749;28;20459;-62
2021/06/13 01:07:57;;;;;;;12.43;7.50;;;17.30;74.40;;;;;;5050982;28;20467;-62
2021/06/13 01:10:34;;;;;;;6.70;3.77;;;17.40;74.30;;;;;;5050693;28;20467;-62
2021/06/13 01:13:06;;;;;;;6.40;4.70;;;17.40;74.10;;;;;;5052051;28;20497;-63
2021/06/13 01:15:38;;;;;;;8.13;5.77;;;17.30;73.90;;;;;;5047450;28;20554;-62
2021/06/13 01:18:11;;;;;;;8.20;4.37;;;17.30;73.90;;;;;;5052084;28;20502;-62
2021/06/13 01:20:43;;;;;;;11.53;6.33;;;17.30;73.70;;;;;;5044464;28;20551;-62
2021/06/13 01:23:25;;;;;;;8.97;5.77;;;17.20;73.60;;;;;;5051982;28;20542;-62
2021/06/13 01:26:20;;;;;;;17.90;12.43;;;17.20;73.90;;;;;;5043172;28;20483;-63
2021/06/13 01:28:59;;;;;;;6.23;4.60;;;17.10;74.00;;;;;;5033280;28;20496;-62
2021/06/13 01:31:29;;;;;;;7.57;5.57;;;17.10;74.10;;;;;;5043813;28;20452;-62
2021/06/13 01:33:58;;;;;;;6.20;4.60;;;17.10;74.40;;;;;;5042763;28;20468;-62
2021/06/13 01:36:25;;;;;;;9.17;4.47;;;17.00;74.60;;;;;;5042705;28;20546;-62
2021/06/13 01:38:52;;;;;;;10.10;6.30;;;17.00;75.00;;;;;;5042972;28;20817;-62
2021/06/13 01:41:23;;;;;;;6.37;4.93;;;17.00;75.50;;;;;;5040910;28;20521;-62
2021/06/13 01:43:54;;;;;;;8.53;4.97;;;17.00;76.00;;;;;;5039165;28;20464;-63
2021/06/13 01:46:24;;;;;;;9.13;3.83;;;17.00;76.60;;;;;;5039379;28;20466;-63
2021/06/13 01:48:52;;;;;;;11.17;5.83;;;16.90;76.80;;;;;;5051398;28;20883;-63
2021/06/13 01:51:19;;;;;;;5.23;3.60;;;16.90;77.40;;;;;;5050739;28;20470;-63
2021/06/13 01:53:46;;;;;;;6.60;5.00;;;16.90;77.30;;;;;;5050782;28;20950;-63
2021/06/13 01:56:15;;;;;;;18.77;13.27;;;16.90;77.70;;;;;;5048697;28;20463;-63
2021/06/13 01:58:44;;;;;;;8.17;4.87;;;16.80;77.70;;;;;;5050847;28;20533;-62
2021/06/13 02:01:12;;;;;;;9.90;5.00;;;16.80;77.60;;;;;;5050601;28;21197;-63
2021/06/13 02:03:45;;;;;;;5.57;4.40;;;16.80;77.90;;;;;;5052014;28;20481;-62
2021/06/13 02:06:12;;;;;;;7.60;4.30;;;16.80;77.70;;;;;;5051546;28;20858;-63
2021/06/13 02:08:40;;;;;;;9.87;6.03;;;16.80;77.90;;;;;;5051782;28;20467;-63
2021/06/13 02:11:09;;;;;;;32.20;19.40;;;16.80;78.20;;;;;;5051326;28;20542;-63
2021/06/13 02:13:37;;;;;;;10.80;6.83;;;16.70;78.30;;;;;;5047725;28;20491;-63
2021/06/13 02:16:05;;;;;;;8.20;4.60;;;16.80;78.30;;;;;;5047300;28;20601;-63
2021/06/13 02:18:33;;;;;;;47.73;36.77;;;16.80;78.10;;;;;;5051448;28;20538;-63
2021/06/13 02:21:06;;;;;;;27.20;20.27;;;16.70;79.60;;;;;;5051823;28;20904;-62
2021/06/13 02:23:33;;;;;;;24.00;18.70;;;16.70;80.00;;;;;;5048169;28;20956;-63
2021/06/13 02:26:00;;;;;;;27.57;18.27;;;16.70;79.40;;;;;;5051624;28;20471;-63
2021/06/13 02:28:32;;;;;;;16.60;8.87;;;16.70;79.70;;;;;;5052250;28;20566;-63
2021/06/13 02:31:01;;;;;;;11.50;5.43;;;16.60;78.90;;;;;;5051703;28;20538;-63
2021/06/13 02:33:31;;;;;;;11.90;7.07;;;16.70;78.70;;;;;;5048823;28;20467;-63
2021/06/13 02:36:00;;;;;;;27.20;21.63;;;16.70;78.70;;;;;;5052163;28;20485;-62
2021/06/13 02:38:28;;;;;;;21.77;14.13;;;16.70;79.40;;;;;;5056026;28;20469;-63
2021/06/13 02:40:54;;;;;;;11.63;8.37;;;16.70;80.00;;;;;;5055390;28;20558;-63
2021/06/13 02:43:21;;;;;;;13.37;10.87;;;16.60;79.70;;;;;;5055945;28;20538;-63
2021/06/13 02:45:49;;;;;;;14.70;11.70;;;16.70;80.40;;;;;;5055899;28;20609;-62
2021/06/13 02:48:16;;;;;;;11.80;6.77;;;16.60;80.40;;;;;;5059687;28;20454;-63
2021/06/13 02:50:42;;;;;;;12.37;9.47;;;16.70;79.50;;;;;;5055696;28;20471;-63
2021/06/13 02:53:14;;;;;;;13.33;7.97;;;16.60;79.60;;;;;;5055377;28;20477;-63
2021/06/13 02:55:51;;;;;;;15.70;10.50;;;16.60;79.70;;;;;;5055674;28;20466;-62
2021/06/13 02:58:36;;;;;;;10.10;8.40;;;16.60;79.90;;;;;;5055063;28;21215;-62
2021/06/13 03:01:05;;;;;;;9.57;5.43;;;16.60;80.20;;;;;;5055011;28;20475;-63
2021/06/13 03:03:33;;;;;;;18.83;13.00;;;16.60;79.80;;;;;;5055659;28;20546;-63
2021/06/13 03:06:06;;;;;;;14.90;11.90;;;16.60;80.50;;;;;;5055265;28;20608;-63
2021/06/13 03:08:34;;;;;;;11.63;6.60;;;16.60;80.80;;;;;;5055326;28;20463;-63
2021/06/13 03:11:05;;;;;;;11.70;6.73;;;16.60;81.60;;;;;;5054784;28;20550;-63
2021/06/13 03:13:32;;;;;;;10.60;5.33;;;16.60;80.60;;;;;;5051224;28;20474;-63
2021/06/13 03:15:59;;;;;;;18.07;10.87;;;16.60;80.40;;;;;;5049501;28;20468;-63
2021/06/13 03:18:27;;;;;;;9.33;6.50;;;16.60;80.80;;;;;;5055459;28;20545;-63
2021/06/13 03:20:54;;;;;;;10.10;7.23;;;16.60;80.80;;;;;;5055190;28;21019;-63
2021/06/13 03:23:21;;;;;;;13.57;8.07;;;16.60;80.90;;;;;;5055132;28;20838;-63
2021/06/13 03:25:49;;;;;;;11.77;6.40;;;16.50;81.00;;;;;;5057163;28;21020;-62
2021/06/13 03:28:18;;;;;;;11.87;8.77;;;16.60;81.00;;;;;;5054480;28;20558;-63
2021/06/13 03:30:44;;;;;;;9.70;6.67;;;16.50;81.20;;;;;;5054856;28;20975;-63
2021/06/13 03:33:11;;;;;;;13.03;6.60;;;16.50;81.30;;;;;;5053698;28;20479;-63
2021/06/13 03:35:38;;;;;;;8.73;4.20;;;16.50;81.30;;;;;;5050451;28;20622;-62
2021/06/13 03:38:06;;;;;;;8.43;4.93;;;16.40;81.30;;;;;;5059167;28;20552;-62
2021/06/13 03:40:33;;;;;;;4.10;3.40;;;16.40;81.60;;;;;;5054696;28;21041;-62
2021/06/13 03:43:02;;;;;;;4.97;3.07;;;16.40;81.70;;;;;;5054507;28;20467;-61
2021/06/13 03:45:31;;;;;;;6.67;4.73;;;16.40;81.90;;;;;;5054709;28;20452;-62
2021/06/13 03:47:59;;;;;;;5.93;3.13;;;16.40;82.10;;;;;;5054356;28;20569;-62
2021/06/13 03:50:27;;;;;;;10.67;4.57;;;16.40;82.20;;;;;;5055164;28;20926;-62
2021/06/13 03:52:54;;;;;;;8.63;3.90;;;16.40;82.40;;;;;;5054711;28;20463;-62
2021/06/13 03:55:21;;;;;;;7.70;3.97;;;16.40;82.80;;;;;;5054052;28;20558;-62
2021/06/13 03:57:51;;;;;;;8.27;5.20;;;16.40;82.90;;;;;;5054485;28;20467;-62
2021/06/13 04:00:19;;;;;;;7.57;5.27;;;16.40;83.40;;;;;;5054089;28;20984;-62
2021/06/13 04:02:49;;;;;;;11.10;4.30;;;16.40;83.50;;;;;;5054664;28;20463;-62
2021/06/13 04:05:18;;;;;;;6.40;3.87;;;16.50;83.40;;;;;;5053926;28;20471;-62
2021/06/13 04:07:45;;;;;;;9.87;6.53;;;16.50;83.20;;;;;;5054366;28;20924;-62
2021/06/13 04:10:14;;;;;;;8.27;5.30;;;16.50;83.60;;;;;;5053888;28;20558;-62
2021/06/13 04:12:45;;;;;;;6.93;4.40;;;16.50;83.70;;;;;;5054343;28;20535;-62
2021/06/13 04:15:13;;;;;;;8.17;4.60;;;16.50;83.50;;;;;;5042316;28;20470;-62
2021/06/13 04:17:41;;;;;;;10.30;4.80;;;16.50;83.50;;;;;;5053871;28;21013;-62
2021/06/13 04:20:11;;;;;;;4.67;3.40;;;16.50;83.60;;;;;;5053955;28;20478;-63
2021/06/13 04:22:40;;;;;;;4.00;3.00;;;16.60;83.50;;;;;;5053966;28;20459;-62
2021/06/13 04:25:09;;;;;;;7.87;5.23;;;16.60;83.50;;;;;;5053888;28;20471;-62
2021/06/13 04:27:37;;;;;;;8.67;4.63;;;16.60;83.40;;;;;;5055890;28;20467;-62
2021/06/13 04:30:06;;;;;;;16.40;11.00;;;16.60;83.50;;;;;;5053609;28;20467;-61
2021/06/13 04:32:33;;;;;;;12.23;9.00;;;16.70;83.60;;;;;;5053751;28;20538;-62
2021/06/13 04:35:00;;;;;;;8.40;6.60;;;16.70;83.60;;;;;;5048654;28;20802;-62
2021/06/13 04:37:28;;;;;;;15.23;7.80;;;16.70;83.60;;;;;;5052966;28;20816;-62
2021/06/13 04:39:55;;;;;;;9.23;6.80;;;16.70;83.40;;;;;;5053847;28;21024;-62
2021/06/13 04:42:23;;;;;;;9.00;4.30;;;16.80;83.50;;;;;;5053060;28;20550;-63
2021/06/13 04:44:50;;;;;;;17.90;10.87;;;16.80;83.20;;;;;;5053628;28;20463;-62
2021/06/13 04:47:17;;;;;;;12.87;8.17;;;16.90;83.30;;;;;;5052209;28;20559;-63
2021/06/13 04:49:45;;;;;;;8.40;5.37;;;16.90;82.90;;;;;;5057703;28;20478;-62
2021/06/13 04:52:15;;;;;;;10.90;5.60;;;16.90;82.80;;;;;;5051142;28;20482;-62
2021/06/13 04:54:55;;;;;;;9.80;5.10;;;16.90;82.50;;;;;;5051700;28;20490;-63
2021/06/13 04:57:42;;;;;;;7.90;2.80;;;16.90;82.50;;;;;;5051520;28;20471;-62
2021/06/13 05:00:09;;;;;;;9.43;5.60;;;16.90;82.30;;;;;;5050685;28;20455;-62
2021/06/13 05:02:36;;;;;;;8.07;4.60;;;16.90;82.50;;;;;;5051360;28;20949;-62
2021/06/13 05:05:03;;;;;;;9.20;5.17;;;16.90;82.60;;;;;;5050524;28;20542;-62
2021/06/13 05:07:30;;;;;;;11.17;4.40;;;16.90;82.70;;;;;;5050446;28;20538;-62
2021/06/13 05:09:58;;;;;;;8.70;3.13;;;16.90;82.80;;;;;;5051127;28;20479;-62
2021/06/13 05:12:25;;;;;;;12.50;7.43;;;16.90;82.50;;;;;;5050976;28;20467;-62
2021/06/13 05:14:52;;;;;;;5.50;3.83;;;16.90;83.00;;;;;;5040581;28;20473;-62
2021/06/13 05:17:18;;;;;;;9.70;5.07;;;16.90;83.00;;;;;;5051984;28;20983;-63
2021/06/13 05:19:45;;;;;;;5.67;3.47;;;17.00;82.90;;;;;;5052962;28;20538;-62
2021/06/13 05:22:13;;;;;;;7.57;4.03;;;17.00;82.80;;;;;;5052571;28;20477;-62
2021/06/13 05:24:39;;;;;;;5.27;4.27;;;17.00;82.60;;;;;;5053069;28;20528;-63
2021/06/13 05:27:08;;;;;;;6.03;3.73;;;17.00;82.60;;;;;;5055495;28;20482;-62
2021/06/13 05:29:35;;;;;;;4.33;3.43;;;17.00;82.60;;;;;;5052559;28;20460;-62
2021/06/13 05:32:02;;;;;;;7.17;3.70;;;17.00;82.50;;;;;;5052979;28;20463;-62
2021/06/13 05:34:28;;;;;;;3.93;3.43;;;17.00;82.50;;;;;;5045934;28;20873;-63
2021/06/13 05:36:55;;;;;;;9.50;4.97;;;17.00;82.60;;;;;;5057066;28;20474;-62
2021/06/13 05:39:22;;;;;;;9.10;3.97;;;17.10;82.80;;;;;;5053511;28;20463;-62
2021/06/13 05:41:49;;;;;;;7.00;4.80;;;17.10;82.70;;;;;;5052714;28;20558;-62
2021/06/13 05:44:17;;;;;;;5.80;3.80;;;17.10;82.80;;;;;;5052381;28;20468;-62
2021/06/13 05:46:44;;;;;;;6.70;4.03;;;17.10;82.70;;;;;;5052700;28;20542;-61
2021/06/13 05:49:11;;;;;;;3.50;2.20;;;17.10;82.60;;;;;;5052378;28;20474;-61
2021/06/13 05:51:38;;;;;;;7.00;4.10;;;17.10;82.60;;;;;;5052350;28;20542;-62
2021/06/13 05:54:06;;;;;;;3.40;2.80;;;17.20;82.90;;;;;;5052815;28;20795;-62
2021/06/13 05:56:32;;;;;;;4.00;2.53;;;17.20;82.50;;;;;;5052206;28;20472;-63
2021/06/13 05:59:00;;;;;;;8.67;4.03;;;17.20;82.70;;;;;;5052617;28;20494;-62
2021/06/13 06:01:28;;;;;;;6.50;3.93;;;17.20;83.00;;;;;;5052008;28;20486;-61
2021/06/13 06:03:55;;;;;;;5.00;3.53;;;17.20;83.00;;;;;;5052493;28;20467;-62
2021/06/13 06:06:21;;;;;;;5.80;3.30;;;17.20;82.80;;;;;;5038631;28;20468;-62
2021/06/13 06:08:48;;;;;;;3.83;2.80;;;17.30;82.80;;;;;;5052630;28;20479;-62
2021/06/13 06:11:15;;;;;;;6.00;3.83;;;17.30;83.00;;;;;;5057075;28;20493;-62
2021/06/13 06:13:42;;;;;;;9.97;3.63;;;17.30;83.00;;;;;;5058396;28;20467;-62
2021/06/13 06:16:09;;;;;;;9.67;4.20;;;17.40;82.20;;;;;;5058446;28;20550;-63
2021/06/13 06:18:37;;;;;;;5.47;3.33;;;17.40;82.10;;;;;;5058071;28;20467;-62
2021/06/13 06:21:04;;;;;;;10.90;3.67;;;17.30;81.90;;;;;;5058892;28;20459;-62
2021/06/13 06:23:31;;;;;;;5.87;4.67;;;17.30;82.20;;;;;;5058689;28;20555;-62
2021/06/13 06:25:58;;;;;;;7.63;3.83;;;17.40;82.10;;;;;;5059015;28;20473;-62
2021/06/13 06:28:25;;;;;;;6.03;3.30;;;17.40;82.00;;;;;;5058335;28;20874;-62
2021/06/13 06:30:52;;;;;;;9.53;4.57;;;17.40;81.40;;;;;;5058842;28;20459;-62
2021/06/13 06:33:18;;;;;;;4.57;3.07;;;17.50;81.80;;;;;;5057812;28;20462;-63
2021/06/13 06:35:47;;;;;;;7.47;4.17;;;17.40;81.30;;;;;;5058827;28;20463;-62
2021/06/13 06:38:14;;;;;;;10.97;3.23;;;17.40;81.30;;;;;;5058599;28;20481;-62
2021/06/13 06:40:40;;;;;;;6.00;3.20;;;17.50;81.40;;;;;;5058659;28;21559;-61
2021/06/13 06:43:07;;;;;;;6.10;3.00;;;17.50;81.50;;;;;;5058757;28;20493;-62
2021/06/13 06:45:34;;;;;;;6.37;2.80;;;17.50;81.20;;;;;;5058510;28;20890;-62
2021/06/13 06:48:01;;;;;;;6.47;2.87;;;17.50;81.10;;;;;;5058484;28;20554;-62
2021/06/13 06:50:28;;;;;;;6.60;3.10;;;17.60;81.10;;;;;;5058399;28;20498;-62
2021/06/13 06:52:56;;;;;;;6.83;3.50;;;17.60;81.30;;;;;;5058648;28;20467;-62
2021/06/13 06:55:23;;;;;;;6.70;3.43;;;17.60;81.10;;;;;;5058089;28;20467;-62
2021/06/13 06:57:50;;;;;;;7.53;4.33;;;17.70;81.00;;;;;;5058600;28;20485;-62
2021/06/13 07:00:18;;;;;;;7.40;4.13;;;17.80;80.90;;;;;;5058791;28;20478;-62
2021/06/13 07:02:46;;;;;;;7.30;4.07;;;17.80;80.40;;;;;;5058225;28;20534;-62
2021/06/13 07:05:14;;;;;;;6.07;4.27;;;17.80;80.40;;;;;;5058886;28;21017;-62
2021/06/13 07:07:42;;;;;;;5.90;3.83;;;17.80;79.70;;;;;;5057860;28;20566;-62
2021/06/13 07:10:11;;;;;;;8.30;3.43;;;17.90;79.20;;;;;;5058504;28;20468;-62
2021/06/13 07:12:38;;;;;;;5.30;3.00;;;17.90;78.80;;;;;;5058167;28;20566;-61
2021/06/13 07:15:08;;;;;;;10.77;4.03;;;18.00;78.50;;;;;;5052267;28;20472;-62
2021/06/13 07:17:35;;;;;;;5.60;2.73;;;18.00;78.90;;;;;;5057137;28;20489;-63
2021/06/13 07:20:02;;;;;;;10.00;4.50;;;18.10;78.50;;;;;;5058304;28;20809;-62
2021/06/13 07:22:28;;;;;;;8.60;3.80;;;18.20;78.10;;;;;;5054705;28;20781;-62
2021/06/13 07:24:57;;;;;;;5.70;4.37;;;18.20;77.30;;;;;;5055415;28;20847;-62
2021/06/13 07:27:26;;;;;;;7.37;3.50;;;18.30;77.80;;;;;;5060868;28;20980;-62
2021/06/13 07:29:53;;;;;;;5.37;2.83;;;18.40;77.10;;;;;;5054978;28;20463;-62
2021/06/13 07:32:20;;;;;;;9.00;3.50;;;18.50;76.90;;;;;;5055024;28;20990;-62
2021/06/13 07:34:47;;;;;;;4.60;2.90;;;18.60;76.50;;;;;;5054382;28;20478;-62
2021/06/13 07:37:15;;;;;;;11.37;3.17;;;18.80;75.60;;;;;;5048138;28;20472;-62
2021/06/13 07:39:42;;;;;;;6.07;2.53;;;18.80;75.30;;;;;;5051636;28;20551;-63
2021/06/13 07:42:09;;;;;;;7.20;4.07;;;18.90;74.10;;;;;;5054802;28;20539;-62
2021/06/13 07:44:38;;;;;;;9.13;4.80;;;18.90;74.30;;;;;;5054613;28;20836;-62
2021/06/13 07:47:06;;;;;;;4.27;2.40;;;19.00;74.10;;;;;;5054925;28;20551;-62
2021/06/13 07:49:33;;;;;;;4.57;2.90;;;19.00;72.90;;;;;;5054467;28;20473;-62
2021/06/13 07:52:00;;;;;;;3.40;2.17;;;19.00;73.20;;;;;;5054630;28;20535;-62
2021/06/13 07:54:28;;;;;;;6.40;2.90;;;19.00;73.50;;;;;;5054588;28;20871;-62
2021/06/13 07:56:55;;;;;;;4.93;3.10;;;19.00;73.90;;;;;;5054450;28;20464;-63
2021/06/13 07:59:22;;;;;;;4.27;3.10;;;19.00;73.90;;;;;;5054693;28;20478;-63
2021/06/13 08:01:50;;;;;;;6.20;2.97;;;19.00;74.00;;;;;;5054053;28;20851;-62
2021/06/13 08:04:17;;;;;;;8.00;3.97;;;19.00;73.30;;;;;;5054635;28;20548;-63
2021/06/13 08:06:44;;;;;;;8.23;3.87;;;19.00;73.90;;;;;;5053884;28;20476;-62
2021/06/13 08:09:11;;;;;;;5.63;3.57;;;19.00;73.30;;;;;;5054425;28;20878;-63
2021/06/13 08:11:38;;;;;;;10.27;4.90;;;19.10;73.30;;;;;;5053934;28;20886;-62
2021/06/13 08:14:05;;;;;;;4.47;3.53;;;19.10;73.00;;;;;;5046042;28;20979;-63
2021/06/13 08:16:32;;;;;;;10.27;3.90;;;19.10;72.90;;;;;;5052977;28;20475;-62
2021/06/13 08:19:00;;;;;;;7.70;3.23;;;19.10;72.90;;;;;;5053966;28;20480;-62
2021/06/13 08:21:27;;;;;;;6.30;4.00;;;19.20;72.10;;;;;;5052829;28;20551;-62
2021/06/13 08:23:54;;;;;;;5.50;2.63;;;19.30;72.60;;;;;;5053460;28;20492;-62
2021/06/13 08:26:21;;;;;;;5.37;3.30;;;19.40;72.50;;;;;;5049672;28;20558;-62
2021/06/13 08:28:47;;;;;;;3.70;2.43;;;19.50;71.80;;;;;;5053640;28;20796;-63
2021/06/13 08:31:14;;;;;;;4.37;2.50;;;19.60;71.60;;;;;;5053880;28;20817;-63
2021/06/13 08:33:41;;;;;;;5.57;2.73;;;19.80;70.90;;;;;;5048239;28;20466;-62
2021/06/13 08:36:09;;;;;;;3.03;2.30;;;19.90;69.90;;;;;;5051949;28;20480;-62
2021/06/13 08:38:36;;;;;;;9.60;2.80;;;20.00;70.10;;;;;;5053326;28;20480;-62
2021/06/13 08:41:03;;;;;;;8.37;3.20;;;20.10;70.10;;;;;;5053959;28;20553;-62
2021/06/13 08:43:30;;;;;;;4.10;2.77;;;20.20;69.40;;;;;;5053483;28;20549;-63
2021/06/13 08:45:59;;;;;;;7.07;3.57;;;20.30;69.10;;;;;;5053445;28;20492;-63
2021/06/13 08:48:28;;;;;;;6.17;2.80;;;20.20;69.20;;;;;;5053674;28;20488;-62
2021/06/13 08:50:59;;;;;;;5.20;2.97;;;20.20;69.60;;;;;;5040309;28;21649;-62
2021/06/13 08:53:28;;;;;;;5.90;2.60;;;20.20;70.10;;;;;;5053688;28;20832;-63
2021/06/13 08:55:55;;;;;;;6.83;3.20;;;20.20;70.40;;;;;;5053049;28;20488;-62
2021/06/13 08:58:22;;;;;;;10.13;2.80;;;20.10;70.20;;;;;;5053438;28;20553;-62
2021/06/13 09:00:50;;;;;;;5.20;2.90;;;20.00;70.20;;;;;;5053013;28;20466;-63
2021/06/13 09:03:18;;;;;;;7.20;2.87;;;20.00;70.80;;;;;;5053344;28;20557;-62
2021/06/13 09:05:45;;;;;;;6.07;3.13;;;20.00;71.50;;;;;;5052874;28;20481;-62
2021/06/13 09:08:13;;;;;;;4.70;3.00;;;19.90;71.80;;;;;;5053102;28;20881;-62
2021/06/13 09:10:43;;;;;;;4.97;2.40;;;19.80;71.90;;;;;;5052950;28;20813;-62
2021/06/13 09:13:15;;;;;;;2.93;2.63;;;19.70;72.30;;;;;;5052564;28;20474;-62
2021/06/13 09:15:45;;;;;;;11.40;5.33;;;19.70;72.60;;;;;;5044710;28;20470;-62
2021/06/13 09:18:28;;;;;;;9.00;5.27;;;19.60;73.00;;;;;;5053116;28;20489;-61
2021/06/13 09:20:55;;;;;;;6.70;3.03;;;19.60;73.00;;;;;;5052825;28;20826;-61
2021/06/13 09:23:22;;;;;;;6.70;3.63;;;19.50;73.30;;;;;;5053144;28;20477;-61
2021/06/13 09:25:59;;;;;;;5.30;2.97;;;19.50;73.90;;;;;;5055812;28;20559;-61
2021/06/13 09:28:26;;;;;;;4.47;2.93;;;19.40;74.50;;;;;;5041052;28;20976;-61
2021/06/13 09:30:53;;;;;;;5.07;3.40;;;19.40;75.50;;;;;;5052383;28;20468;-61
2021/06/13 09:33:23;;;;;;;6.27;3.17;;;19.30;77.00;;;;;;5050615;28;20477;-62
2021/06/13 09:35:51;;;;;;;4.63;2.80;;;19.30;79.30;;;;;;5047768;28;20471;-62
2021/06/13 09:38:21;;;;;;;4.27;3.13;;;19.10;80.30;;;;;;5052751;28;20548;-62
2021/06/13 09:40:53;;;;;;;5.43;3.43;;;19.10;82.60;;;;;;5052195;28;20481;-62
2021/06/13 09:43:25;;;;;;;8.57;4.77;;;19.00;82.80;;;;;;5052320;28;20459;-62
2021/06/13 09:45:54;;;;;;;6.33;3.00;;;18.90;83.40;;;;;;5051132;28;20543;-61
2021/06/13 09:48:22;;;;;;;7.90;3.50;;;18.80;84.10;;;;;;5052733;28;20554;-62
2021/06/13 09:50:51;;;;;;;5.10;3.60;;;18.70;83.90;;;;;;5051915;28;20475;-62
2021/06/13 09:53:23;;;;;;;12.57;3.47;;;18.70;85.10;;;;;;5052780;28;20546;-62
2021/06/13 09:56:03;;;;;;;7.67;3.67;;;18.60;85.40;;;;;;5038913;28;20542;-62
2021/06/13 09:58:30;;;;;;;4.43;3.10;;;18.60;85.50;;;;;;5052349;28;20868;-62
2021/06/13 10:01:06;;;;;;;5.60;3.00;;;18.60;85.90;;;;;;5052245;28;20558;-61
2021/06/13 10:03:36;;;;;;;7.50;3.17;;;18.70;85.70;;;;;;5049301;28;21000;-61
2021/06/13 10:06:03;;;;;;;11.00;3.87;;;18.70;85.00;;;;;;5043137;28;20455;-63
2021/06/13 10:08:30;;;;;;;12.20;3.73;;;18.80;84.80;;;;;;5052366;28;20481;-62
2021/06/13 10:10:59;;;;;;;10.70;4.20;;;18.90;84.00;;;;;;5052021;28;20479;-63
2021/06/13 10:13:40;;;;;;;10.00;3.67;;;19.10;81.20;;;;;;5049383;28;20479;-62
2021/06/13 10:16:08;;;;;;;7.80;6.90;;;19.10;80.00;;;;;;5046700;28;21002;-62
2021/06/13 10:18:38;;;;;;;5.90;5.03;;;19.20;79.10;;;;;;5052127;28;21052;-62
2021/06/13 10:21:10;;;;;;;5.10;4.00;;;19.20;78.50;;;;;;5051849;28;20477;-62
2021/06/13 10:23:37;;;;;;;5.90;5.27;;;19.30;78.10;;;;;;5052055;28;20481;-61
2021/06/13 10:26:07;;;;;;;10.10;5.90;;;19.30;77.90;;;;;;5051689;28;20560;-62
2021/06/13 10:28:34;;;;;;;6.27;3.80;;;19.30;77.30;;;;;;5051434;28;20501;-61
2021/06/13 10:31:02;;;;;;;5.77;3.57;;;19.30;76.90;;;;;;5051503;28;20555;-62
2021/06/13 10:33:29;;;;;;;5.13;3.20;;;19.30;76.20;;;;;;5048716;28;20558;-62
2021/06/13 10:36:00;;;;;;;3.67;2.63;;;19.30;75.10;;;;;;5041938;28;20485;-62
2021/06/13 10:38:28;;;;;;;5.23;3.43;;;19.30;75.20;;;;;;5054615;28;20463;-62
2021/06/13 10:40:55;;;;;;;10.70;3.47;;;19.30;74.70;;;;;;5051810;28;20471;-62
2021/06/13 10:43:25;;;;;;;4.47;3.17;;;19.30;74.70;;;;;;5051981;28;20537;-62
2021/06/13 10:45:53;;;;;;;4.67;2.77;;;19.30;74.40;;;;;;5051503;28;20554;-62
2021/06/13 10:48:20;;;;;;;3.90;3.20;;;19.40;73.00;;;;;;5051948;28;20561;-62
2021/06/13 10:50:47;;;;;;;7.80;2.97;;;19.40;72.50;;;;;;5051810;28;20467;-62
2021/06/13 10:53:15;;;;;;;9.10;3.23;;;19.50;71.10;;;;;;5051875;28;20788;-62
2021/06/13 10:55:53;;;;;;;8.83;3.10;;;19.50;70.60;;;;;;5051968;28;20470;-62
2021/06/13 10:58:46;;;;;;;3.97;2.77;;;19.50;69.80;;;;;;5041898;28;20488;-62
2021/06/13 11:01:27;;;;;;;6.27;3.20;;;19.60;69.60;;;;;;5055273;28;20468;-62
2021/06/13 11:04:05;;;;;;;4.83;3.80;;;19.50;69.60;;;;;;5055722;28;20562;-62
2021/06/13 11:06:45;;;;;;;7.57;4.07;;;19.50;69.70;;;;;;5043983;28;20842;-62
2021/06/13 11:09:14;;;;;;;8.40;4.50;;;19.40;70.00;;;;;;5052301;28;20489;-62
2021/06/13 11:11:43;;;;;;;6.90;4.77;;;19.40;70.80;;;;;;5055145;28;20545;-62
2021/06/13 11:14:25;;;;;;;6.17;5.10;;;19.40;71.30;;;;;;5055486;28;20467;-62
2021/06/13 11:16:52;;;;;;;6.40;4.07;;;19.40;71.10;;;;;;5048731;28;20467;-62
2021/06/13 11:19:29;;;;;;;7.40;5.53;;;19.30;71.00;;;;;;5055094;28;20460;-62
2021/06/13 11:22:30;;;;;;;7.80;5.40;;;19.30;71.20;;;;;;5055044;28;20565;-61
2021/06/13 11:24:58;;;;;;;10.00;3.97;;;19.40;72.30;;;;;;5054988;28;20463;-62
2021/06/13 11:27:26;;;;;;;9.23;4.17;;;19.50;73.00;;;;;;5041894;28;20476;-63
2021/06/13 11:29:56;;;;;;;12.37;5.00;;;19.50;71.00;;;;;;5054432;28;20850;-62
2021/06/13 11:32:50;;;;;;;6.83;3.70;;;19.60;70.40;;;;;;5054565;28;20479;-63
2021/06/13 11:35:26;;;;;;;11.63;4.50;;;19.70;69.50;;;;;;5052377;28;20473;-62
2021/06/13 11:38:24;;;;;;;9.23;4.50;;;19.80;69.60;;;;;;5054613;28;20541;-63
2021/06/13 11:40:53;;;;;;;5.40;3.93;;;19.90;69.70;;;;;;5044698;28;20457;-62
2021/06/13 11:43:22;;;;;;;7.93;5.23;;;19.90;69.90;;;;;;5054848;28;20487;-62
2021/06/13 11:45:55;;;;;;;7.80;5.60;;;20.00;69.70;;;;;;5054613;28;22064;-62
2021/06/13 11:48:23;;;;;;;4.93;4.00;;;20.10;69.60;;;;;;5054660;28;20493;-62
2021/06/13 11:51:10;;;;;;;9.40;4.67;;;20.10;69.50;;;;;;5054545;28;20542;-62
2021/06/13 11:53:51;;;;;;;6.23;4.93;;;20.10;69.30;;;;;;5042452;28;20794;-62
2021/06/13 11:56:39;;;;;;;4.37;3.97;;;20.20;69.20;;;;;;5053702;28;20548;-62
2021/06/13 11:59:08;;;;;;;5.10;4.00;;;20.30;68.00;;;;;;5055224;28;21194;-62
2021/06/13 12:01:38;;;;;;;4.00;3.60;;;20.30;68.10;;;;;;5041194;28;20515;-62
2021/06/13 12:04:07;;;;;;;6.57;4.40;;;20.40;68.60;;;;;;5047551;28;21032;-62
2021/06/13 12:06:35;;;;;;;11.93;6.70;;;20.40;68.10;;;;;;5054100;28;20462;-62
2021/06/13 12:09:06;;;;;;;6.50;5.70;;;20.40;67.80;;;;;;5053724;28;20519;-62
2021/06/13 12:11:45;;;;;;;4.57;3.83;;;20.50;66.70;;;;;;5054093;28;20470;-62
2021/06/13 12:14:24;;;;;;;4.83;4.30;;;20.60;66.50;;;;;;5048237;28;20474;-61
2021/06/13 12:16:54;;;;;;;6.87;4.60;;;20.70;66.20;;;;;;5046732;28;20545;-62
2021/06/13 12:19:31;;;;;;;6.17;4.17;;;20.70;65.40;;;;;;5053773;28;20549;-62
2021/06/13 12:22:23;;;;;;;7.70;4.33;;;20.80;65.30;;;;;;5054200;28;20463;-62
2021/06/13 12:27:32;;;;;;;7.53;4.87;;;20.80;66.00;;;;;;5031701;28;20550;-62
2021/06/13 12:30:02;;;;;;;13.17;4.97;;;20.90;65.90;;;;;;5054039;28;20554;-62
2021/06/13 12:32:31;;;;;;;5.60;4.07;;;20.90;65.20;;;;;;5053618;28;20482;-62
2021/06/13 12:35:11;;;;;;;6.00;4.37;;;21.00;64.90;;;;;;5049021;28;20477;-62
2021/06/13 12:37:38;;;;;;;5.97;5.00;;;21.10;64.20;;;;;;5052974;28;20546;-62
2021/06/13 12:40:09;;;;;;;8.90;5.40;;;21.10;63.70;;;;;;5053450;28;20559;-63
2021/06/13 12:42:37;;;;;;;7.57;4.30;;;21.20;64.60;;;;;;5044191;28;20471;-61
2021/06/13 12:45:09;;;;;;;10.20;6.03;;;21.20;63.20;;;;;;5053798;28;20548;-62
2021/06/13 12:47:38;;;;;;;6.03;4.50;;;21.20;62.10;;;;;;5053170;28;20475;-62
2021/06/13 12:50:06;;;;;;;9.97;4.73;;;21.20;61.60;;;;;;5053621;28;20464;-63
2021/06/13 12:52:36;;;;;;;6.53;3.90;;;21.10;60.40;;;;;;5043498;28;20490;-63
2021/06/13 12:55:05;;;;;;;6.13;4.53;;;21.10;60.30;;;;;;5053323;28;21568;-63
2021/06/13 12:57:33;;;;;;;4.50;4.07;;;21.20;60.60;;;;;;5053665;28;20501;-62